Terminal Aerodrome Forecast
Issued by NWS Pittsburgh, PA

Current Version | Previous Version | Graphics & Text | Print | Product List | Glossary On
Versions: 1 2 3 4 5 6 7 8 9 10 11 12 13 14 15 16 17 18 19 20 21 22 23 24 25 26 27 28 29 30 31 32
000
FTUS41 KPBZ 301727
TAFPIT
TAF
KPIT 301727Z 3018/0124 22010G18KT P6SM VCTS BKN035CB
      TEMPO 3021/3024 3SM TSRA BKN025CB
     FM010400 21005KT P6SM VCSH BKN050
     FM010900 24007KT P6SM VCSH OVC015
     FM011500 27009KT P6SM BKN050=

USA.gov is the U.S. government's official web portal to all federal, state and local government web resources and services.